Time;durP1;ratioP1;P1;durP2;ratioP2;P2;SDS_P1;SDS_P2;PMS_P1;PMS_P2;Temp;Humidity;BMP_temperature;BMP_pressure;BME280_temperature;BME280_humidity;BME280_pressure;Samples;Min_cycle;Max_cycle;Signal;HPM_P1;HPM_P2
2021/04/08 00:01:08;;;;;;;8.03;2.63;;;;;;;4.08;67.43;100511.38;6094097;29;20201;-71
2021/04/08 00:04:11;;;;;;;10.03;2.77;;;;;;;3.99;67.11;100517.84;6093286;29;20304;-72
2021/04/08 00:07:16;;;;;;;12.30;2.40;;;;;;;3.92;67.27;100522.31;6093099;29;20191;-72
2021/04/08 00:10:19;;;;;;;16.00;2.87;;;;;;;3.92;67.26;100530.41;6094330;29;20240;-71
2021/04/08 00:13:23;;;;;;;20.10;3.40;;;;;;;3.93;67.62;100530.19;6094084;29;20196;-71
2021/04/08 00:16:27;;;;;;;28.43;3.53;;;;;;;3.77;67.68;100524.97;6092900;29;20410;-71
2021/04/08 00:19:30;;;;;;;9.17;3.03;;;;;;;3.25;69.96;100535.59;6094289;29;20190;-71
2021/04/08 00:22:34;;;;;;;12.03;2.90;;;;;;;3.64;68.96;100536.34;6097181;29;20279;-71
2021/04/08 00:25:37;;;;;;;18.43;2.60;;;;;;;3.53;68.60;100534.06;6098668;29;20266;-71
2021/04/08 00:28:41;;;;;;;11.60;2.50;;;;;;;3.56;69.42;100533.72;6097262;29;20507;-71
2021/04/08 00:31:44;;;;;;;15.47;3.10;;;;;;;3.72;67.22;100538.97;6097182;29;20560;-71
2021/04/08 00:34:47;;;;;;;17.20;2.97;;;;;;;3.52;68.52;100548.56;6098178;29;20204;-71
2021/04/08 00:37:51;;;;;;;26.97;3.60;;;;;;;3.60;68.20;100537.72;6097128;29;20196;-71
2021/04/08 00:40:54;;;;;;;19.77;3.60;;;;;;;3.64;68.65;100547.16;6096950;29;20425;-70
2021/04/08 00:43:59;;;;;;;24.00;3.67;;;;;;;3.61;67.52;100547.50;6096792;29;20537;-70
2021/04/08 00:47:03;;;;;;;9.30;2.70;;;;;;;3.58;68.39;100553.25;6080466;29;20273;-70
2021/04/08 00:50:07;;;;;;;10.60;2.70;;;;;;;3.31;69.46;100561.84;6097929;29;20295;-70
2021/04/08 00:53:16;;;;;;;15.83;2.70;;;;;;;3.28;69.48;100551.41;6080602;29;20241;-70
2021/04/08 00:56:19;;;;;;;3.80;2.37;;;;;;;3.14;69.66;100560.22;6096719;29;20216;-71
2021/04/08 00:59:23;;;;;;;13.83;2.57;;;;;;;3.12;69.94;100562.28;6097244;29;20197;-70
2021/04/08 01:02:26;;;;;;;5.83;2.53;;;;;;;3.23;69.54;100559.19;6096575;29;20379;-70
2021/04/08 01:05:30;;;;;;;8.60;3.13;;;;;;;3.11;69.77;100558.72;6108779;23;20335;-72
2021/04/08 01:08:33;;;;;;;9.50;2.70;;;;;;;3.28;69.29;100562.19;6096688;29;20192;-72
2021/04/08 01:11:36;;;;;;;10.43;2.80;;;;;;;3.44;68.50;100554.00;6096893;29;20211;-73
2021/04/08 01:14:40;;;;;;;4.50;2.63;;;;;;;3.34;68.98;100566.88;6095631;29;20203;-73
2021/04/08 01:17:49;;;;;;;11.43;2.80;;;;;;;3.18;68.82;100545.41;6096768;29;20224;-72
2021/04/08 01:21:06;;;;;;;8.77;2.27;;;;;;;3.13;68.99;100574.75;6096646;29;20256;-73
2021/04/08 01:24:41;;;;;;;5.53;2.43;;;;;;;3.04;69.39;100575.78;6096380;29;20330;-73
2021/04/08 01:28:10;;;;;;;11.57;2.10;;;;;;;3.18;69.22;100572.38;6091023;29;20208;-72
2021/04/08 01:31:16;;;;;;;10.33;2.40;;;;;;;2.94;69.46;100550.91;6096051;29;20213;-72
2021/04/08 01:34:23;;;;;;;8.23;2.33;;;;;;;3.32;68.94;100574.31;6095940;29;20197;-73
2021/04/08 01:37:30;;;;;;;9.53;2.30;;;;;;;3.15;68.81;100578.09;6095141;29;20475;-71
2021/04/08 01:40:33;;;;;;;8.07;2.20;;;;;;;3.24;68.57;100571.63;6095720;29;20201;-72
2021/04/08 01:43:45;;;;;;;5.53;2.10;;;;;;;3.33;68.55;100581.38;6095628;29;20529;-72
2021/04/08 01:46:55;;;;;;;6.10;2.53;;;;;;;3.34;68.66;100598.41;6094993;29;20204;-73
2021/04/08 01:49:59;;;;;;;9.07;1.93;;;;;;;3.34;67.69;100583.03;6095769;29;20276;-73
2021/04/08 01:53:06;;;;;;;5.63;2.20;;;;;;;3.22;68.27;100595.25;6094771;29;20204;-72
2021/04/08 01:56:11;;;;;;;5.30;2.47;;;;;;;3.17;68.17;100576.91;6095871;29;20201;-72
2021/04/08 01:59:15;;;;;;;10.40;2.47;;;;;;;3.29;68.61;100590.81;6095756;29;20204;-72
2021/04/08 02:02:19;;;;;;;16.43;2.37;;;;;;;3.23;68.69;100591.53;6094566;29;20243;-73
2021/04/08 02:05:26;;;;;;;9.90;2.60;;;;;;;3.26;68.46;100596.59;6094504;29;20489;-72
2021/04/08 02:08:30;;;;;;;8.20;2.23;;;;;;;3.32;68.43;100606.66;6095266;29;20191;-72
2021/04/08 02:11:36;;;;;;;4.00;2.50;;;;;;;2.96;70.14;100605.44;6094457;29;20438;-72
2021/04/08 02:14:41;;;;;;;9.93;2.43;;;;;;;3.16;69.30;100614.81;6095512;29;20281;-72
2021/04/08 02:17:50;;;;;;;5.40;2.30;;;;;;;3.14;69.81;100615.00;6095056;29;20237;-72
2021/04/08 02:20:53;;;;;;;4.60;2.43;;;;;;;2.89;70.40;100617.94;6094188;29;20464;-72
2021/04/08 02:23:57;;;;;;;11.50;2.40;;;;;;;2.15;72.78;100602.91;6094093;29;20403;-72
2021/04/08 02:27:02;;;;;;;9.13;2.17;;;;;;;2.67;71.14;100632.16;6094031;29;20199;-72
2021/04/08 02:30:09;;;;;;;4.60;2.13;;;;;;;2.58;71.53;100625.09;6094945;29;20192;-72
2021/04/08 02:33:24;;;;;;;8.80;2.47;;;;;;;2.48;72.27;100631.50;6095233;29;20201;-72
2021/04/08 02:36:28;;;;;;;4.20;2.73;;;;;;;2.64;71.51;100636.03;6094797;29;20233;-72
2021/04/08 02:39:31;;;;;;;5.67;2.13;;;;;;;2.86;71.33;100631.75;6093940;29;20200;-73
2021/04/08 02:42:34;;;;;;;7.93;1.97;;;;;;;2.54;72.46;100641.56;6094094;29;20204;-72
2021/04/08 02:45:38;;;;;;;5.33;2.20;;;;;;;2.03;75.44;100643.78;6093249;29;20470;-72
2021/04/08 02:48:42;;;;;;;6.00;2.27;;;;;;;2.26;74.96;100645.63;6095193;29;20254;-72
2021/04/08 02:51:51;;;;;;;4.50;2.00;;;;;;;2.52;73.80;100646.28;6094418;29;20191;-72
2021/04/08 02:55:02;;;;;;;8.53;2.20;;;;;;;2.44;74.67;100654.38;6093799;29;20196;-73
2021/04/08 02:58:08;;;;;;;9.23;2.43;;;;;;;2.50;73.72;100647.47;6093395;29;20455;-72
2021/04/08 03:01:13;;;;;;;9.03;2.10;;;;;;;2.23;74.55;100646.00;6095058;29;20190;-73
2021/04/08 03:04:21;;;;;;;2.63;2.10;;;;;;;2.00;76.25;100639.59;6094025;29;20262;-73
2021/04/08 03:07:28;;;;;;;8.30;2.10;;;;;;;2.03;75.65;100639.22;6093571;29;20190;-73
2021/04/08 03:10:31;;;;;;;3.80;1.90;;;;;;;1.97;76.23;100661.44;6094080;29;20233;-72
2021/04/08 03:13:38;;;;;;;2.33;1.83;;;;;;;1.76;77.20;100658.34;6093301;29;20245;-72
2021/04/08 03:16:47;;;;;;;9.20;2.07;;;;;;;1.76;77.10;100658.34;6077077;29;20277;-73
2021/04/08 03:19:53;;;;;;;2.00;1.73;;;;;;;1.55;78.22;100666.88;6092877;29;20192;-72
2021/04/08 03:23:00;;;;;;;2.83;2.13;;;;;;;1.50;78.65;100669.22;6093738;29;20249;-73
2021/04/08 03:26:05;;;;;;;4.53;2.00;;;;;;;1.60;77.52;100652.94;6093703;29;20191;-72
2021/04/08 03:29:09;;;;;;;11.53;1.93;;;;;;;1.49;77.56;100680.97;6092785;29;20385;-73
2021/04/08 03:32:17;;;;;;;4.10;1.80;;;;;;;1.62;77.05;100665.22;6093786;29;20198;-73
2021/04/08 03:35:23;;;;;;;4.73;2.00;;;;;;;1.55;76.64;100676.78;6093888;29;20258;-72
2021/04/08 03:38:27;;;;;;;8.90;2.10;;;;;;;1.49;76.85;100672.06;6092817;29;20191;-73
2021/04/08 03:41:35;;;;;;;7.00;2.40;;;;;;;1.45;76.66;100684.13;6092503;29;20545;-73
2021/04/08 03:44:38;;;;;;;3.37;2.00;;;;;;;1.48;76.75;100681.13;6076213;29;20536;-73
2021/04/08 03:47:44;;;;;;;2.13;1.87;;;;;;;1.35;77.21;100686.13;6092443;29;20190;-73
2021/04/08 03:50:49;;;;;;;3.77;1.80;;;;;;;1.17;75.59;100609.13;6092703;29;20438;-72
2021/04/08 03:53:52;;;;;;;2.50;1.83;;;;;;;1.52;75.45;100693.22;6076357;29;20219;-73
2021/04/08 03:56:58;;;;;;;2.63;2.00;;;;;;;1.46;76.13;100710.03;6097929;29;20253;-73
2021/04/08 04:00:04;;;;;;;2.33;1.80;;;;;;;1.47;76.69;100711.69;6098138;29;20262;-72
2021/04/08 04:03:18;;;;;;;5.43;2.30;;;;;;;1.30;75.66;100688.44;6097182;29;20233;-72
2021/04/08 04:06:23;;;;;;;1.97;1.70;;;;;;;1.55;75.76;100714.41;6098227;29;20197;-73
2021/04/08 04:09:27;;;;;;;3.00;1.73;;;;;;;1.69;74.68;100713.81;6097934;29;20192;-73
2021/04/08 04:12:30;;;;;;;4.57;1.80;;;;;;;1.96;73.49;100718.94;6098142;29;20272;-73
2021/04/08 04:15:35;;;;;;;4.73;1.90;;;;;;;1.91;72.19;100705.13;6096876;29;20262;-72
2021/04/08 04:18:39;;;;;;;6.33;1.90;;;;;;;1.84;72.30;100717.56;6097563;29;20192;-73
2021/04/08 04:21:43;;;;;;;2.23;1.57;;;;;;;1.67;72.45;100697.00;6097906;29;20197;-73
2021/04/08 04:24:47;;;;;;;3.53;2.00;;;;;;;1.70;73.24;100728.94;6096697;29;20301;-73
2021/04/08 04:27:50;;;;;;;5.70;2.03;;;;;;;1.70;73.63;100724.41;6096496;29;20550;-73
2021/04/08 04:30:53;;;;;;;5.13;1.73;;;;;;;1.87;70.38;100725.31;6097455;29;20224;-72
2021/04/08 04:33:57;;;;;;;10.07;2.27;;;;;;;1.86;72.13;100718.22;6096378;29;20227;-73
2021/04/08 04:37:00;;;;;;;5.33;1.60;;;;;;;1.81;72.76;100728.66;6080686;29;20240;-72
2021/04/08 04:40:05;;;;;;;4.77;1.93;;;;;;;1.73;74.01;100728.63;6097122;29;20193;-73
2021/04/08 04:43:08;;;;;;;2.80;2.00;;;;;;;1.75;73.40;100731.97;6096553;29;20211;-73
2021/04/08 04:46:11;;;;;;;10.70;2.17;;;;;;;1.60;73.55;100723.69;6097086;29;20219;-73
2021/04/08 04:49:14;;;;;;;8.90;2.17;;;;;;;1.95;73.19;100722.66;6096109;29;20552;-73
2021/04/08 04:52:19;;;;;;;17.40;2.20;;;;;;;2.10;71.28;100723.69;6096231;29;20192;-73
2021/04/08 04:55:22;;;;;;;11.60;2.20;;;;;;;2.22;70.84;100724.19;6096198;29;20506;-73
2021/04/08 04:58:25;;;;;;;12.43;1.97;;;;;;;2.17;70.82;100716.63;6096256;29;20192;-73
2021/04/08 05:01:28;;;;;;;5.43;2.17;;;;;;;1.64;72.21;100729.59;6097418;29;20190;-73
2021/04/08 05:04:32;;;;;;;5.20;1.67;;;;;;;2.07;70.98;100726.69;6097026;29;20245;-74
2021/04/08 05:07:36;;;;;;;9.83;1.77;;;;;;;2.14;71.40;100719.66;6095151;29;20450;-73
2021/04/08 05:10:39;;;;;;;5.40;2.07;;;;;;;2.13;70.53;100736.78;6096605;29;20200;-73
2021/04/08 05:13:42;;;;;;;6.17;1.90;;;;;;;1.97;71.10;100723.31;6096607;29;20230;-73
2021/04/08 05:16:46;;;;;;;2.87;1.80;;;;;;;1.88;70.91;100732.34;6095288;29;20195;-72
2021/04/08 05:19:50;;;;;;;2.27;1.80;;;;;;;1.81;71.34;100742.09;6095879;29;20264;-71
2021/04/08 05:22:55;;;;;;;6.40;1.70;;;;;;;2.00;71.29;100741.84;6096012;29;20189;-72
2021/04/08 05:25:58;;;;;;;3.97;1.73;;;;;;;2.27;69.58;100749.63;6079496;29;20363;-72
2021/04/08 05:29:01;;;;;;;4.87;1.90;;;;;;;2.31;68.80;100745.56;6096113;29;20192;-72
2021/04/08 05:32:05;;;;;;;12.70;2.00;;;;;;;2.43;67.04;100746.94;6096182;29;20196;-73
2021/04/08 05:35:10;;;;;;;2.80;1.60;;;;;;;2.25;67.19;100722.03;6096245;29;20196;-72
2021/04/08 05:38:14;;;;;;;12.53;1.83;;;;;;;2.34;67.31;100747.94;6095956;29;20199;-72
2021/04/08 05:41:17;;;;;;;5.07;1.90;;;;;;;2.52;67.26;100748.63;6094840;29;20196;-72
2021/04/08 05:44:20;;;;;;;2.63;1.73;;;;;;;2.47;67.40;100745.59;6094821;29;20226;-73
2021/04/08 05:47:23;;;;;;;2.97;1.60;;;;;;;2.58;66.86;100757.06;6095954;29;20192;-73
2021/04/08 05:50:27;;;;;;;6.47;1.97;;;;;;;2.37;66.54;100758.38;6094587;29;20362;-71
2021/04/08 05:53:31;;;;;;;2.20;1.97;;;;;;;2.33;66.29;100764.28;6095479;29;20196;-72
2021/04/08 05:56:35;;;;;;;8.40;2.17;;;;;;;2.56;66.14;100748.31;6094755;29;20227;-73
2021/04/08 05:59:38;;;;;;;3.27;1.73;;;;;;;2.29;65.85;100761.06;6094500;29;20381;-73
2021/04/08 06:02:41;;;;;;;1.70;1.60;;;;;;;2.51;65.32;100765.81;6095278;29;20225;-73
2021/04/08 06:05:44;;;;;;;6.13;1.80;;;;;;;2.65;64.77;100768.81;6094385;29;20242;-73
2021/04/08 06:08:49;;;;;;;14.00;1.80;;;;;;;2.74;64.48;100767.84;6094233;29;20448;-73
2021/04/08 06:11:52;;;;;;;6.77;1.77;;;;;;;2.87;63.60;100768.19;6095105;29;20243;-73
2021/04/08 06:14:56;;;;;;;2.53;1.80;;;;;;;2.64;63.63;100767.16;6093984;29;20500;-73
2021/04/08 06:17:59;;;;;;;5.60;2.07;;;;;;;2.65;63.13;100769.69;6093538;29;20289;-73
2021/04/08 06:21:02;;;;;;;7.47;1.70;;;;;;;2.80;63.01;100769.88;6094478;29;20233;-73
2021/04/08 06:24:07;;;;;;;7.83;2.00;;;;;;;2.83;62.79;100775.75;6093988;29;20512;-73
2021/04/08 06:27:11;;;;;;;8.57;1.90;;;;;;;2.97;62.62;100771.53;6094786;29;20260;-73
2021/04/08 06:30:15;;;;;;;9.80;1.97;;;;;;;3.15;60.63;100772.19;6094522;29;20191;-73
2021/04/08 06:33:18;;;;;;;4.10;1.90;;;;;;;3.02;59.09;100775.41;6093705;29;20454;-73
2021/04/08 06:36:21;;;;;;;13.80;2.07;;;;;;;3.33;59.54;100778.22;6093540;29;20534;-72
2021/04/08 06:39:26;;;;;;;7.03;2.00;;;;;;;3.24;59.58;100783.78;6093660;29;20193;-73
2021/04/08 06:42:31;;;;;;;26.37;3.47;;;;;;;3.23;60.26;100764.09;6094104;29;20198;-73
2021/04/08 06:45:34;;;;;;;7.97;2.27;;;;;;;3.48;58.47;100787.28;6094305;29;20221;-72
2021/04/08 06:48:42;;;;;;;8.20;1.80;;;;;;;3.63;57.45;100776.63;6093877;29;20201;-72
2021/04/08 06:51:51;;;;;;;5.43;1.40;;;;;;;3.87;55.93;100794.59;6094046;29;20199;-72
2021/04/08 06:54:55;;;;;;;2.43;1.60;;;;;;;4.07;54.89;100785.03;6094226;29;20321;-72
2021/04/08 06:58:00;;;;;;;4.87;2.00;;;;;;;4.27;56.93;100795.22;6093238;29;20218;-72
2021/04/08 07:01:07;;;;;;;6.33;1.67;;;;;;;4.31;54.67;100793.03;6093492;29;20224;-72
2021/04/08 07:04:11;;;;;;;12.80;1.33;;;;;;;4.11;55.69;100781.00;6093379;29;20237;-71
2021/04/08 07:07:15;;;;;;;13.30;2.63;;;;;;;4.40;56.67;100786.53;6094151;29;20268;-72
2021/04/08 07:10:19;;;;;;;10.63;1.70;;;;;;;4.32;56.36;100784.75;6094584;29;20193;-72
2021/04/08 07:13:22;;;;;;;9.27;1.93;;;;;;;4.49;55.34;100785.50;6094498;29;20249;-73
2021/04/08 07:16:25;;;;;;;16.07;2.13;;;;;;;4.70;53.71;100790.25;6093533;29;20487;-72
2021/04/08 07:19:29;;;;;;;10.83;1.70;;;;;;;4.63;53.47;100803.63;6093016;29;20405;-73
2021/04/08 07:22:32;;;;;;;15.33;2.10;;;;;;;4.42;54.18;100800.72;6094061;29;20416;-72
2021/04/08 07:26:00;;;;;;;5.60;1.80;;;;;;;4.30;54.79;100791.34;6092988;29;20517;-73
2021/04/08 07:29:04;;;;;;;5.30;1.60;;;;;;;4.54;54.19;100798.47;6092794;29;20431;-72
2021/04/08 07:32:10;;;;;;;13.20;1.73;;;;;;;4.51;53.71;100805.06;6093035;29;20192;-72
2021/04/08 07:35:16;;;;;;;59.70;3.93;;;;;;;4.57;53.07;100804.31;6092678;29;20267;-72
2021/04/08 07:38:19;;;;;;;35.37;2.80;;;;;;;4.65;53.02;100806.16;6093423;29;20191;-73
2021/04/08 07:41:27;;;;;;;13.67;2.10;;;;;;;4.81;52.45;100800.63;6093326;29;20233;-72
2021/04/08 07:44:42;;;;;;;15.13;2.07;;;;;;;4.66;52.89;100803.25;6092374;29;20216;-72
2021/04/08 07:47:57;;;;;;;5.27;1.67;;;;;;;4.54;54.05;100802.00;6093490;29;20192;-72
2021/04/08 07:51:00;;;;;;;13.73;1.80;;;;;;;4.63;53.14;100808.19;6093163;29;20267;-73
2021/04/08 07:54:11;;;;;;;33.37;2.30;;;;;;;4.76;52.31;100820.09;6093639;29;20262;-72
2021/04/08 07:57:16;;;;;;;37.73;3.50;;;;;;;4.92;52.37;100809.16;6092379;29;20455;-72
2021/04/08 08:00:22;;;;;;;22.93;2.50;;;;;;;4.91;51.26;100807.47;6093400;29;20229;-72
2021/04/08 08:03:31;;;;;;;6.83;1.40;;;;;;;4.90;50.96;100822.03;6093269;29;20235;-72
2021/04/08 08:06:35;;;;;;;3.03;1.70;;;;;;;4.96;50.62;100815.88;6092650;29;20387;-72
2021/04/08 08:09:48;;;;;;;4.80;1.80;;;;;;;4.99;50.88;100809.25;6092209;29;20220;-72
2021/04/08 08:12:53;;;;;;;11.17;1.80;;;;;;;4.98;49.99;100803.00;6093308;29;20196;-72
2021/04/08 08:15:58;;;;;;;10.30;2.10;;;;;;;4.89;50.24;100798.69;6093120;29;20194;-72
2021/04/08 08:19:01;;;;;;;3.43;1.50;;;;;;;5.04;50.46;100813.09;6093036;29;20191;-72
2021/04/08 08:22:05;;;;;;;5.57;1.33;;;;;;;4.93;49.89;100820.81;6093484;29;20191;-72
2021/04/08 08:25:12;;;;;;;2.80;1.10;;;;;;;4.91;49.37;100823.69;6092189;29;20543;-72
2021/04/08 08:28:16;;;;;;;4.07;1.30;;;;;;;4.79;48.75;100821.59;6092167;29;20485;-72
2021/04/08 08:31:41;;;;;;;3.47;1.20;;;;;;;4.73;50.05;100823.13;6092808;29;20196;-71
2021/04/08 08:34:48;;;;;;;5.20;1.50;;;;;;;4.92;50.49;100830.78;6093004;29;20195;-72
2021/04/08 08:37:51;;;;;;;14.33;1.50;;;;;;;4.95;48.93;100825.03;6092775;29;20230;-72
2021/04/08 08:40:57;;;;;;;1.03;1.03;;;;;;;5.08;49.34;100830.63;6092564;29;20192;-72
2021/04/08 08:44:04;;;;;;;4.90;1.50;;;;;;;5.12;49.43;100819.47;6079254;29;20206;-72
2021/04/08 08:47:12;;;;;;;2.90;1.10;;;;;;;5.10;49.75;100837.75;6097022;29;20239;-73
2021/04/08 08:50:18;;;;;;;2.70;1.37;;;;;;;5.00;48.86;100833.44;6096179;29;20193;-72
2021/04/08 08:53:21;;;;;;;6.87;1.00;;;;;;;4.92;49.02;100836.19;6097318;29;20199;-73
2021/04/08 08:56:25;;;;;;;7.70;1.10;;;;;;;5.12;48.72;100841.09;6097395;29;20197;-73
2021/04/08 08:59:30;;;;;;;8.13;1.27;;;;;;;5.24;48.09;100836.97;6079024;29;20217;-73
2021/04/08 09:02:35;;;;;;;14.17;1.40;;;;;;;5.27;47.53;100833.84;6095692;29;20527;-72
2021/04/08 09:05:38;;;;;;;12.23;1.50;;;;;;;5.25;46.45;100820.53;6097195;29;20241;-71
2021/04/08 09:08:46;;;;;;;3.53;0.90;;;;;;;4.97;44.54;100831.09;6095779;29;20190;-71
2021/04/08 09:11:50;;;;;;;5.30;1.03;;;;;;;5.03;44.30;100837.63;6096332;29;20191;-71
2021/04/08 09:14:56;;;;;;;3.70;0.90;;;;;;;4.84;44.61;100828.13;6096426;29;20196;-73
2021/04/08 09:18:00;;;;;;;4.03;1.30;;;;;;;5.05;45.14;100822.91;6095921;29;20196;-72
2021/04/08 09:21:04;;;;;;;3.60;0.90;;;;;;;5.25;45.38;100835.91;6095855;29;20499;-72
2021/04/08 09:24:14;;;;;;;6.30;1.37;;;;;;;5.29;45.02;100815.59;6096817;29;20193;-72
2021/04/08 09:27:22;;;;;;;1.10;1.00;;;;;;;5.34;45.10;100824.00;6095457;29;20437;-72
2021/04/08 09:30:48;;;;;;;2.17;1.20;;;;;;;5.27;45.39;100828.44;6096440;29;20191;-72
2021/04/08 09:33:58;;;;;;;5.40;1.20;;;;;;;5.19;44.74;100809.63;6095352;29;20325;-72
2021/04/08 09:37:01;;;;;;;12.33;1.30;;;;;;;5.31;45.73;100829.78;6095368;29;20197;-72
2021/04/08 09:40:06;;;;;;;7.83;1.10;;;;;;;5.45;44.68;100828.97;6095951;29;20200;-72
2021/04/08 09:43:12;;;;;;;15.70;1.30;;;;;;;5.59;45.89;100833.56;6096330;29;20263;-73
2021/04/08 09:46:18;;;;;;;5.67;1.07;;;;;;;5.57;45.43;100835.63;6096127;29;20218;-73
2021/04/08 09:49:46;;;;;;;5.73;1.23;;;;;;;5.68;46.06;100832.44;6095958;29;20235;-73
2021/04/08 09:52:54;;;;;;;0.93;0.93;;;;;;;5.65;46.27;100838.22;6095664;29;20389;-72
2021/04/08 09:56:00;;;;;;;3.20;1.23;;;;;;;5.67;42.83;100833.50;6094506;29;20445;-72
2021/04/08 09:59:03;;;;;;;3.90;0.93;;;;;;;5.73;43.55;100832.72;6095849;29;20193;-73
2021/04/08 10:02:08;;;;;;;2.70;1.57;;;;;;;5.74;44.52;100823.59;6094550;29;20222;-73
2021/04/08 10:05:14;;;;;;;4.73;1.00;;;;;;;5.87;43.59;100842.78;6094964;29;20243;-73
2021/04/08 10:08:21;;;;;;;1.53;0.83;;;;;;;5.89;43.58;100839.88;6095285;29;20196;-73
2021/04/08 10:11:29;;;;;;;2.20;1.00;;;;;;;5.91;43.37;100833.22;6094254;29;20262;-73
2021/04/08 10:14:33;;;;;;;1.57;1.10;;;;;;;5.99;42.01;100827.72;6095647;29;20199;-74
2021/04/08 10:17:39;;;;;;;4.43;1.50;;;;;;;6.14;41.96;100833.97;6095954;29;20215;-73
2021/04/08 10:20:44;;;;;;;1.07;1.07;;;;;;;5.88;42.38;100839.00;6094252;29;20226;-72
2021/04/08 10:23:49;;;;;;;8.23;1.27;;;;;;;6.00;42.68;100842.97;6094694;29;20198;-72
2021/04/08 10:26:52;;;;;;;3.43;1.27;;;;;;;6.04;41.03;100832.56;6095120;29;20295;-73
2021/04/08 10:29:56;;;;;;;1.60;1.00;;;;;;;6.14;41.34;100831.25;6095940;29;20240;-72
2021/04/08 10:33:00;;;;;;;10.40;1.10;;;;;;;6.20;40.95;100838.66;6096721;29;20199;-73
2021/04/08 10:36:04;;;;;;;5.17;0.93;;;;;;;6.41;40.76;100834.31;6095986;29;20416;-72
2021/04/08 10:39:10;;;;;;;2.37;1.00;;;;;;;6.43;41.01;100837.66;6096054;29;20203;-72
2021/04/08 10:42:14;;;;;;;0.97;0.97;;;;;;;6.21;40.79;100834.88;6094413;29;20478;-72
2021/04/08 10:45:19;;;;;;;2.60;0.87;;;;;;;6.32;41.47;100829.00;6094251;29;20202;-72
2021/04/08 10:48:25;;;;;;;5.83;1.17;;;;;;;6.50;42.13;100846.69;6095888;29;20272;-72
2021/04/08 10:51:28;;;;;;;1.93;0.90;;;;;;;6.54;41.92;100834.47;6095433;29;20191;-72
2021/04/08 10:54:33;;;;;;;2.47;1.00;;;;;;;6.52;40.80;100831.97;6093185;29;20222;-73
2021/04/08 10:57:37;;;;;;;10.33;1.50;;;;;;;6.66;41.51;100828.34;6094093;29;20196;-72
2021/04/08 11:00:44;;;;;;;11.03;1.10;;;;;;;6.83;39.92;100834.38;6094234;29;20261;-72
2021/04/08 11:04:04;;;;;;;9.73;1.10;;;;;;;6.80;39.63;100840.19;6093092;29;20372;-72
2021/04/08 11:07:09;;;;;;;12.47;1.20;;;;;;;6.85;40.08;100832.31;6093734;29;20217;-72
2021/04/08 11:10:14;;;;;;;0.93;0.87;;;;;;;6.92;39.19;100834.06;6093153;29;20382;-72
2021/04/08 11:13:17;;;;;;;1.30;1.00;;;;;;;7.00;37.91;100830.38;6094009;29;20196;-72
2021/04/08 11:16:20;;;;;;;8.10;0.90;;;;;;;6.98;37.93;100799.91;6093407;29;20197;-72
2021/04/08 11:19:25;;;;;;;1.80;0.80;;;;;;;6.90;38.01;100822.56;6093809;29;20201;-73
2021/04/08 11:22:32;;;;;;;5.40;1.20;;;;;;;7.07;38.53;100828.56;6094255;29;20201;-73
2021/04/08 11:25:37;;;;;;;1.27;0.90;;;;;;;6.90;36.40;100813.59;6093846;29;20248;-73
2021/04/08 11:28:41;;;;;;;1.73;1.20;;;;;;;7.03;37.78;100824.56;6092452;29;20190;-72
2021/04/08 11:31:46;;;;;;;1.07;1.07;;;;;;;7.22;37.69;100828.47;6093564;29;20276;-73
2021/04/08 11:34:51;;;;;;;5.33;1.20;;;;;;;7.36;37.58;100820.28;6092420;29;20483;-73
2021/04/08 11:38:10;;;;;;;1.17;1.00;;;;;;;7.43;37.08;100820.31;6093351;29;20246;-73
2021/04/08 11:41:13;;;;;;;1.93;0.90;;;;;;;7.20;36.91;100809.69;6093057;29;20233;-73
2021/04/08 11:44:26;;;;;;;;;;;;;;;7.35;37.05;100818.59;6093875;29;20059;-73
2021/04/08 11:47:29;;;;;;;;;;;;;;;7.46;37.02;100820.78;6092823;29;20254;-73
2021/04/08 11:50:34;;;;;;;5.97;0.70;;;;;;;7.49;36.76;100803.25;6093494;29;20031;-73
2021/04/08 11:53:40;;;;;;;1.37;1.00;;;;;;;7.67;36.02;100810.88;6093137;29;20189;-73
2021/04/08 11:56:45;;;;;;;1.80;0.80;;;;;;;7.63;37.07;100810.44;6093239;29;20225;-73
2021/04/08 11:59:48;;;;;;;3.97;0.90;;;;;;;7.75;36.82;100814.28;6093564;29;20196;-72
2021/04/08 12:02:51;;;;;;;;;;;;;;;7.58;37.06;100819.19;6093643;29;20049;-73
2021/04/08 12:05:55;;;;;;;;;;;;;;;7.64;36.40;100811.28;6093378;29;20221;-72
2021/04/08 12:08:59;;;;;;;;;;;;;;;7.73;36.31;100804.66;6093536;29;19923;-73
2021/04/08 12:12:01;;;;;;;;;;;;;;;7.78;36.26;100802.19;6094323;29;19958;-71
2021/04/08 12:15:07;;;;;;;;;;;;;;;7.92;35.77;100815.63;6094269;29;20007;-72
2021/04/08 12:18:19;;;;;;;;;;;;;;;7.89;37.21;100807.03;6098828;29;19923;-72
2021/04/08 12:21:25;;;;;;;1.00;1.00;;;;;;;7.73;35.67;100804.66;6098454;29;19991;-73
2021/04/08 12:24:28;;;;;;;;;;;;;;;7.78;35.75;100802.19;6098461;29;20113;-72
2021/04/08 12:27:32;;;;;;;6.33;0.83;;;;;;;7.85;36.56;100800.34;6097730;29;19919;-72
2021/04/08 12:30:45;;;;;;;1.70;0.90;;;;;;;7.95;37.13;100798.09;6096728;29;20514;-71
2021/04/08 12:33:49;;;;;;;7.45;1.05;;;;;;;8.14;36.62;100797.34;6096810;29;20189;-74
2021/04/08 12:36:53;;;;;;;;;;;;;;;8.00;35.96;100801.06;6097289;29;20255;-71
2021/04/08 12:39:56;;;;;;;;;;;;;;;7.96;35.79;100789.75;6098415;29;19920;-72
2021/04/08 12:42:58;;;;;;;;;;;;;;;8.11;35.65;100790.44;6097864;29;19982;-72
2021/04/08 12:46:09;;;;;;;;;;;;;;;8.19;37.07;100784.03;6098596;29;20005;-72
2021/04/08 12:49:20;;;;;;;;;;;;;;;8.30;35.87;100791.59;6099767;29;19919;-72
2021/04/08 12:52:36;;;;;;;;;;;;;;;8.40;35.06;100774.91;6097359;29;20075;-71
2021/04/08 12:55:40;;;;;;;4.10;1.00;;;;;;;8.06;35.79;100783.97;6097332;29;20039;-71
2021/04/08 12:58:44;;;;;;;7.03;1.40;;;;;;;8.28;35.52;100793.69;6079848;29;20205;-72
2021/04/08 13:01:47;;;;;;;;;;;;;;;8.38;36.85;100783.28;6098344;29;20197;-71
2021/04/08 13:04:51;;;;;;;;;;;;;;;8.60;37.32;100786.69;6097373;29;20024;-71
2021/04/08 13:07:55;;;;;;;;;;;;;;;8.77;36.05;100782.53;6097080;29;19978;-73
2021/04/08 13:10:59;;;;;;;1.20;0.93;;;;;;;8.63;35.81;100787.09;6096752;29;20595;-72
2021/04/08 13:14:02;;;;;;;1.00;1.00;;;;;;;8.67;35.42;100787.53;6096696;29;20190;-72
2021/04/08 13:17:25;;;;;;;5.43;0.90;;;;;;;8.56;35.99;100783.53;6096606;29;20289;-72
2021/04/08 13:20:29;;;;;;;2.47;0.90;;;;;;;8.72;35.28;100779.59;6095621;29;20491;-72
2021/04/08 13:23:33;;;;;;;5.53;0.98;;;;;;;8.72;36.46;100764.13;6095625;29;20212;-72
2021/04/08 13:26:37;;;;;;;3.03;1.20;;;;;;;8.72;35.00;100775.00;6095745;29;20220;-72
2021/04/08 13:29:41;;;;;;;2.60;1.10;;;;;;;8.75;34.63;100780.03;6095896;29;20230;-71
2021/04/08 13:32:45;;;;;;;3.15;1.02;;;;;;;8.77;34.84;100783.38;6096372;29;20190;-72
2021/04/08 13:35:48;;;;;;;10.73;1.05;;;;;;;8.78;35.98;100784.22;6096109;29;20246;-72
2021/04/08 13:38:52;;;;;;;2.10;0.90;;;;;;;8.85;36.32;100784.22;6096045;29;20268;-73
2021/04/08 13:41:55;;;;;;;;;;;;;;;8.88;35.60;100772.94;6095756;29;19919;-71
2021/04/08 13:44:59;;;;;;;2.10;1.00;;;;;;;8.55;35.57;100773.69;6095674;29;20234;-72
2021/04/08 13:48:03;;;;;;;0.98;0.85;;;;;;;8.66;35.51;100754.06;6095334;29;20284;-71
2021/04/08 13:51:06;;;;;;;2.70;1.00;;;;;;;8.58;36.11;100756.97;6096281;29;20217;-72
2021/04/08 13:54:10;;;;;;;1.85;0.70;;;;;;;8.40;36.27;100762.16;6094897;29;20378;-73
2021/04/08 13:57:14;;;;;;;3.08;0.90;;;;;;;8.65;35.75;100763.25;6094815;29;20511;-72
2021/04/08 14:00:21;;;;;;;7.43;1.10;;;;;;;8.75;36.47;100758.28;6095601;29;20197;-72
2021/04/08 14:03:25;;;;;;;;;;;;;;;8.66;36.32;100759.50;6095900;29;20094;-72
2021/04/08 14:06:28;;;;;;;;;;;;;;;8.34;37.01;100760.28;6095973;29;19984;-72
2021/04/08 14:09:32;;;;;;;;;;;;;;;8.48;36.25;100752.97;6096048;29;19955;-72
2021/04/08 14:12:35;;;;;;;;;;;;;;;8.64;36.78;100750.72;6094915;29;19942;-72
2021/04/08 14:15:41;;;;;;;;;;;;;;;8.52;36.43;100752.38;6095911;29;19969;-72
2021/04/08 14:18:44;;;;;;;;;;;;;;;8.49;36.47;100752.78;6095107;29;19923;-72
2021/04/08 14:21:47;;;;;;;;;;;;;;;8.56;36.39;100748.19;6095606;29;19919;-72
2021/04/08 14:24:52;;;;;;;10.02;1.10;;;;;;;8.78;35.96;100740.72;6094289;29;20234;-73
2021/04/08 14:27:58;;;;;;;8.70;1.27;;;;;;;8.66;35.69;100731.47;6095134;29;20257;-73
2021/04/08 14:31:01;;;;;;;5.78;1.08;;;;;;;8.61;35.68;100740.25;6094874;29;20221;-73
2021/04/08 14:34:05;;;;;;;4.22;1.20;;;;;;;8.68;35.27;100730.22;6095164;29;20189;-73
2021/04/08 14:37:08;;;;;;;2.88;0.80;;;;;;;8.71;35.21;100728.94;6094594;29;20194;-73